Time;durP1;ratioP1;P1;durP2;ratioP2;P2;SDS_P1;SDS_P2;PMS_P1;PMS_P2;Temp;Humidity;BMP_temperature;BMP_pressure;BME280_temperature;BME280_humidity;BME280_pressure;Samples;Min_cycle;Max_cycle;Signal;HPM_P1;HPM_P2
2021/07/10 00:04:15;;;;;;;2.97;2.22;;;20.90;71.50;;;;;;20923694;28;20033;-84
2021/07/10 00:14:16;;;;;;;3.08;2.15;;;20.90;71.50;;;;;;20907240;28;20025;-83
2021/07/10 00:24:17;;;;;;;2.63;1.70;;;20.90;71.50;;;;;;20854924;28;20040;-84
2021/07/10 00:34:17;;;;;;;4.03;1.90;;;20.90;72.20;;;;;;20887361;28;20058;-83
2021/07/10 00:44:19;;;;;;;3.08;2.42;;;20.90;71.60;;;;;;20882915;28;20037;-83
2021/07/10 00:54:22;;;;;;;4.55;2.22;;;20.80;71.50;;;;;;20896889;28;20021;-84
2021/07/10 01:04:23;;;;;;;3.05;2.30;;;20.80;71.50;;;;;;20877639;28;20494;-84
2021/07/10 01:14:24;;;;;;;3.78;2.22;;;20.90;71.60;;;;;;20910747;28;20514;-82
2021/07/10 01:24:26;;;;;;;3.33;2.30;;;20.90;71.60;;;;;;20866919;28;20041;-83
2021/07/10 01:34:29;;;;;;;3.25;2.50;;;20.80;71.50;;;;;;20884279;28;20318;-82
2021/07/10 01:44:29;;;;;;;3.42;2.63;;;20.80;71.50;;;;;;20832086;28;20068;-84
2021/07/10 01:54:30;;;;;;;4.03;2.40;;;20.80;71.50;;;;;;20839495;28;20381;-83
2021/07/10 02:04:32;;;;;;;2.75;2.40;;;20.70;71.40;;;;;;20852755;28;20083;-84
2021/07/10 02:14:35;;;;;;;3.33;2.72;;;20.80;71.50;;;;;;20830393;28;20029;-84
2021/07/10 02:24:35;;;;;;;3.60;2.65;;;20.70;71.30;;;;;;20842712;28;20638;-83
2021/07/10 02:34:36;;;;;;;3.78;3.03;;;20.70;71.30;;;;;;20849102;28;20033;-83
2021/07/10 02:44:38;;;;;;;3.80;2.75;;;20.70;71.20;;;;;;20823637;28;20050;-83
2021/07/10 02:54:39;;;;;;;3.88;3.17;;;20.70;71.20;;;;;;20846284;28;20042;-82
2021/07/10 03:04:41;;;;;;;4.65;3.45;;;20.70;71.10;;;;;;20841781;28;20063;-83
2021/07/10 03:14:43;;;;;;;4.40;2.92;;;20.70;71.00;;;;;;20822286;28;20033;-82
2021/07/10 03:24:43;;;;;;;3.60;2.60;;;20.60;70.90;;;;;;20815467;28;20106;-83
2021/07/10 03:34:45;;;;;;;8.13;3.97;;;20.60;70.80;;;;;;20841490;28;20040;-82
2021/07/10 03:44:46;;;;;;;5.22;3.10;;;20.60;70.80;;;;;;20857586;28;20029;-83
2021/07/10 03:54:47;;;;;;;4.55;2.97;;;20.60;70.70;;;;;;20897668;28;20082;-83
2021/07/10 04:04:49;;;;;;;3.60;2.83;;;20.60;71.30;;;;;;20935533;28;20041;-83
2021/07/10 04:14:50;;;;;;;5.18;3.38;;;20.60;70.60;;;;;;20888044;28;20055;-82
2021/07/10 04:24:52;;;;;;;5.13;3.10;;;20.60;70.60;;;;;;20868452;28;20115;-81
2021/07/10 04:34:53;;;;;;;3.97;2.80;;;20.60;70.60;;;;;;20886977;28;20123;-81
2021/07/10 04:44:55;;;;;;;3.13;2.35;;;20.60;70.60;;;;;;20887522;28;20029;-82
2021/07/10 04:54:57;;;;;;;4.53;3.10;;;20.50;70.50;;;;;;20887369;28;20368;-81
2021/07/10 05:04:57;;;;;;;4.22;2.97;;;20.50;70.50;;;;;;20886291;28;20037;-82
2021/07/10 05:14:58;;;;;;;4.85;3.42;;;20.50;70.50;;;;;;20890864;28;20534;-81
2021/07/10 05:25:01;;;;;;;5.65;3.47;;;20.50;70.50;;;;;;20903630;28;20063;-81
2021/07/10 05:35:04;;;;;;;4.55;3.10;;;20.50;71.20;;;;;;20851743;28;20049;-81
2021/07/10 05:45:05;;;;;;;4.00;3.15;;;20.50;70.50;;;;;;20838478;28;20514;-81
2021/07/10 05:55:07;;;;;;;4.45;3.35;;;20.60;70.50;;;;;;20802287;28;20025;-81
2021/07/10 06:05:11;;;;;;;6.28;2.85;;;20.60;70.40;;;;;;20844262;28;20048;-79
2021/07/10 06:15:13;;;;;;;4.93;3.17;;;20.50;70.40;;;;;;20901603;28;20029;-78
2021/07/10 06:25:15;;;;;;;4.03;3.20;;;20.60;70.40;;;;;;20883071;28;20047;-80
2021/07/10 06:35:15;;;;;;;3.45;2.60;;;20.60;70.40;;;;;;20901310;28;20454;-82
2021/07/10 06:45:17;;;;;;;3.47;2.97;;;20.60;70.30;;;;;;20899213;28;20041;-85
2021/07/10 06:55:18;;;;;;;3.55;2.90;;;20.70;70.30;;;;;;20898176;28;20315;-79
2021/07/10 07:05:18;;;;;;;3.97;3.13;;;20.70;70.30;;;;;;20898992;28;20072;-79
2021/07/10 07:15:19;;;;;;;3.63;2.95;;;20.70;70.90;;;;;;20896392;28;20291;-78
2021/07/10 07:25:22;;;;;;;3.40;2.50;;;20.70;70.20;;;;;;20895334;28;20437;-75
2021/07/10 07:35:22;;;;;;;5.88;2.88;;;20.70;70.10;;;;;;20892354;28;20430;-75
2021/07/10 07:45:23;;;;;;;3.92;2.75;;;20.70;70.00;;;;;;20893674;28;20040;-74
2021/07/10 07:55:25;;;;;;;4.53;3.17;;;20.80;70.00;;;;;;20892633;28;20120;-80
2021/07/10 08:05:26;;;;;;;9.13;2.90;;;20.70;69.80;;;;;;20892440;28;20291;-78
2021/07/10 08:15:27;;;;;;;3.80;2.90;;;20.80;69.80;;;;;;20891520;28;20052;-78
2021/07/10 08:25:28;;;;;;;2.80;2.50;;;20.80;69.70;;;;;;20890832;28;20414;-78
2021/07/10 08:35:29;;;;;;;4.72;3.05;;;20.80;69.70;;;;;;20889671;28;20055;-79
2021/07/10 08:45:31;;;;;;;4.35;3.13;;;20.80;69.90;;;;;;20888933;28;20048;-78
2021/07/10 08:55:33;;;;;;;4.07;2.95;;;20.80;69.60;;;;;;20884894;28;20049;-77
2021/07/10 09:05:35;;;;;;;4.10;2.95;;;20.80;69.60;;;;;;20890088;28;20041;-77
2021/07/10 09:15:36;;;;;;;4.05;3.17;;;20.80;69.60;;;;;;20888157;28;20491;-79
2021/07/10 09:25:36;;;;;;;4.50;3.25;;;20.80;69.60;;;;;;20868930;28;20057;-78
2021/07/10 09:36:06;;;;;;;5.95;3.50;;;20.80;69.60;;;;;;21342773;22;20399;-77
2021/07/10 09:46:08;;;;;;;6.20;3.13;;;20.80;69.60;;;;;;20969261;28;20040;-77
2021/07/10 09:56:17;;;;;;;4.38;3.38;;;20.80;69.60;;;;;;20970293;28;20090;-77
2021/07/10 10:06:28;;;;;;;5.32;3.90;;;20.90;69.70;;;;;;20982481;28;20498;-80
2021/07/10 10:16:29;;;;;;;3.85;3.35;;;20.80;69.70;;;;;;20903217;28;20028;-83
2021/07/10 10:26:30;;;;;;;7.80;4.00;;;20.90;69.70;;;;;;20887851;28;20037;-80
2021/07/10 10:36:31;;;;;;;5.30;4.22;;;20.80;69.70;;;;;;20889206;28;20090;-82
2021/07/10 10:46:45;;;;;;;6.63;4.10;;;20.90;69.70;;;;;;20902937;28;20127;-78
2021/07/10 10:56:46;;;;;;;5.57;4.03;;;20.90;69.60;;;;;;20888413;28;20029;-83
2021/07/10 11:06:48;;;;;;;7.40;4.03;;;20.90;69.70;;;;;;20886181;28;20529;-78
2021/07/10 11:17:06;;;;;;;6.03;3.90;;;20.80;69.40;;;;;;20919863;28;20029;-80
2021/07/10 11:27:07;;;;;;;4.60;3.90;;;20.90;69.50;;;;;;20902454;28;20071;-81
2021/07/10 11:37:24;;;;;;;5.32;3.72;;;20.90;69.50;;;;;;20919412;28;20029;-81
2021/07/10 11:47:32;;;;;;;5.63;4.03;;;20.90;69.50;;;;;;20916920;28;20496;-81
2021/07/10 11:57:36;;;;;;;5.75;4.20;;;20.90;69.50;;;;;;20914409;28;20029;-83
2021/07/10 12:07:42;;;;;;;5.15;4.13;;;20.90;69.30;;;;;;20924049;28;20072;-80
2021/07/10 12:17:47;;;;;;;6.55;4.55;;;21.00;69.00;;;;;;20932308;28;20056;-76
2021/07/10 12:27:56;;;;;;;7.30;4.13;;;21.20;68.80;;;;;;20904324;28;20044;-76
2021/07/10 12:38:10;;;;;;;5.85;4.50;;;21.20;68.30;;;;;;20890809;28;20037;-76
2021/07/10 12:48:11;;;;;;;4.75;3.83;;;21.30;67.80;;;;;;20908734;28;20185;-75
2021/07/10 12:58:13;;;;;;;5.93;3.47;;;21.20;67.80;;;;;;20876043;28;20265;-80
2021/07/10 13:08:23;;;;;;;5.05;3.83;;;21.30;67.90;;;;;;20902812;28;20041;-82
2021/07/10 13:18:49;;;;;;;6.00;3.42;;;21.30;67.90;;;;;;20966014;28;20371;-81
2021/07/10 13:28:58;;;;;;;4.18;3.42;;;21.30;67.60;;;;;;20959227;28;20044;-80
2021/07/10 13:39:11;;;;;;;4.68;3.45;;;21.30;67.50;;;;;;20998121;28;20048;-77
2021/07/10 13:49:34;;;;;;;4.53;3.60;;;21.30;67.20;;;;;;20966095;28;20390;-79
2021/07/10 13:59:35;;;;;;;4.40;3.10;;;21.40;67.30;;;;;;20988660;28;20037;-80
2021/07/10 14:09:36;;;;;;;4.95;2.90;;;21.40;67.20;;;;;;20988657;28;20119;-83
2021/07/10 14:19:37;;;;;;;4.00;3.08;;;21.50;67.30;;;;;;21003849;28;20056;-84
2021/07/10 14:29:38;;;;;;;4.38;3.15;;;21.50;67.40;;;;;;20993499;28;20048;-85
2021/07/10 14:39:39;;;;;;;4.40;3.22;;;21.60;67.50;;;;;;21009792;28;20490;-82
2021/07/10 14:49:41;;;;;;;3.67;3.17;;;21.60;67.50;;;;;;21006367;28;20143;-78
2021/07/10 14:59:42;;;;;;;5.30;3.45;;;21.60;67.60;;;;;;21004628;28;20025;-80
2021/07/10 15:09:43;;;;;;;4.22;3.55;;;21.60;67.70;;;;;;20985321;28;20402;-75
2021/07/10 15:19:43;;;;;;;5.28;3.55;;;21.60;67.80;;;;;;20965926;28;20463;-77
2021/07/10 15:29:44;;;;;;;4.43;3.77;;;21.60;67.70;;;;;;20983014;28;20036;-76
2021/07/10 15:39:44;;;;;;;4.47;3.80;;;21.60;67.60;;;;;;20993989;28;20286;-79
2021/07/10 15:49:47;;;;;;;4.78;3.50;;;21.60;67.70;;;;;;20932454;28;20033;-79
2021/07/10 15:59:53;;;;;;;4.55;3.78;;;21.60;67.70;;;;;;20914502;28;20112;-79
2021/07/10 16:09:54;;;;;;;4.13;3.50;;;21.70;67.70;;;;;;20909918;28;20120;-75
2021/07/10 16:19:58;;;;;;;5.10;3.65;;;21.80;67.50;;;;;;20984326;28;20116;-81
2021/07/10 16:30:00;;;;;;;6.03;4.18;;;21.80;67.50;;;;;;20972097;28;20044;-83
2021/07/10 16:40:04;;;;;;;4.43;3.65;;;21.80;67.50;;;;;;20985792;28;20043;-84
2021/07/10 16:50:06;;;;;;;4.03;3.63;;;21.80;67.50;;;;;;20973722;28;20169;-83
2021/07/10 17:00:15;;;;;;;5.50;3.55;;;21.80;67.60;;;;;;20988987;28;20059;-84
2021/07/10 17:10:17;;;;;;;4.22;3.30;;;21.80;67.70;;;;;;20973931;28;20043;-82
2021/07/10 17:20:18;;;;;;;6.55;3.30;;;21.80;67.70;;;;;;20978492;28;20060;-80
2021/07/10 17:30:19;;;;;;;4.13;3.30;;;21.90;67.80;;;;;;20958328;28;20399;-80
2021/07/10 17:40:20;;;;;;;4.53;3.30;;;21.80;67.80;;;;;;20938397;28;20054;-80
2021/07/10 17:50:21;;;;;;;5.05;3.17;;;21.70;67.90;;;;;;20953320;28;20041;-79
2021/07/10 18:00:25;;;;;;;4.78;3.17;;;21.70;68.00;;;;;;20954350;28;20039;-82
2021/07/10 18:10:25;;;;;;;3.88;3.05;;;21.80;68.20;;;;;;20970145;28;20032;-82
2021/07/10 18:20:27;;;;;;;3.30;2.90;;;21.60;68.90;;;;;;20973537;28;20048;-82
2021/07/10 18:30:28;;;;;;;5.53;3.45;;;21.60;68.30;;;;;;20985850;28;20037;-82
2021/07/10 18:40:29;;;;;;;4.47;3.33;;;21.60;68.40;;;;;;20984419;28;20560;-81
2021/07/10 18:50:32;;;;;;;5.65;3.60;;;21.60;68.50;;;;;;20982892;28;20474;-85
2021/07/10 19:00:33;;;;;;;4.05;3.60;;;21.60;68.60;;;;;;21000067;28;20035;-85
2021/07/10 19:10:35;;;;;;;5.15;3.92;;;21.60;68.80;;;;;;20982698;28;20037;-83
2021/07/10 19:20:37;;;;;;;4.80;3.72;;;21.50;68.90;;;;;;20981727;28;20033;-84
2021/07/10 19:30:41;;;;;;;3.55;3.22;;;21.50;69.00;;;;;;20983922;28;20042;-84
2021/07/10 19:40:43;;;;;;;4.47;3.72;;;21.40;69.00;;;;;;20982955;28;20032;-84
2021/07/10 19:50:43;;;;;;;5.55;3.80;;;21.50;69.10;;;;;;20983189;28;20048;-84
2021/07/10 20:00:45;;;;;;;3.97;3.40;;;21.50;69.10;;;;;;20987129;28;20439;-84
2021/07/10 20:10:51;;;;;;;4.20;3.30;;;21.50;69.30;;;;;;21029775;28;20036;-83
2021/07/10 20:20:53;;;;;;;4.95;3.38;;;21.40;69.40;;;;;;21036577;28;20387;-83
2021/07/10 20:30:54;;;;;;;4.88;3.63;;;21.40;69.30;;;;;;21020464;28;20397;-83
2021/07/10 20:40:58;;;;;;;3.88;3.33;;;21.40;69.30;;;;;;21014141;28;20044;-82
2021/07/10 20:51:00;;;;;;;3.95;3.20;;;21.40;69.40;;;;;;20980789;28;20501;-83
2021/07/10 21:01:02;;;;;;;3.75;3.20;;;21.40;69.50;;;;;;21016902;28;20081;-83
2021/07/10 21:11:04;;;;;;;4.30;3.25;;;21.40;69.60;;;;;;21035669;28;20072;-83
2021/07/10 21:21:06;;;;;;;4.30;3.60;;;21.30;69.70;;;;;;21047165;28;20433;-84
2021/07/10 21:31:07;;;;;;;4.35;3.70;;;21.30;69.80;;;;;;21027941;28;20302;-85
2021/07/10 21:41:09;;;;;;;3.97;3.58;;;21.30;69.90;;;;;;21034332;28;20059;-83
2021/07/10 21:51:10;;;;;;;4.43;3.80;;;21.30;70.00;;;;;;21039201;28;20074;-83
2021/07/10 22:01:30;;;;;;;3.85;3.35;;;21.30;70.10;;;;;;21019443;28;20029;-83
2021/07/10 22:11:32;;;;;;;5.30;3.95;;;21.30;70.10;;;;;;20973240;28;20037;-84
2021/07/10 22:21:35;;;;;;;4.15;3.20;;;21.30;70.10;;;;;;20989163;28;20083;-83
2021/07/10 22:31:38;;;;;;;4.10;3.70;;;21.30;70.10;;;;;;20989639;28;20466;-84
2021/07/10 22:41:39;;;;;;;4.43;3.58;;;21.30;70.10;;;;;;20987393;28;20043;-83
2021/07/10 22:51:40;;;;;;;6.30;4.18;;;21.30;70.10;;;;;;21003483;28;20041;-84
2021/07/10 23:01:41;;;;;;;4.60;4.00;;;21.30;70.10;;;;;;21002962;28;20032;-84
2021/07/10 23:11:42;;;;;;;5.60;3.88;;;21.30;70.10;;;;;;20968740;28;20042;-83
2021/07/10 23:21:49;;;;;;;4.45;3.47;;;21.30;70.20;;;;;;20986139;28;20483;-84
2021/07/10 23:31:58;;;;;;;6.50;4.13;;;21.30;70.20;;;;;;20967348;28;20085;-84
2021/07/10 23:42:01;;;;;;;4.93;4.43;;;21.30;70.20;;;;;;20984067;28;20123;-84
2021/07/10 23:52:05;;;;;;;4.88;4.00;;;21.30;70.20;;;;;;20998844;28;20028;-84
